sensor_id;sensor_type;location;lat;lon;timestamp;temperature;humidity
983;DHT22;480;48.124;11.578;2023-01-24T00:23:07;1.10;99.90
983;DHT22;480;48.124;11.578;2023-01-24T00:25:35;1.30;99.90
983;DHT22;480;48.124;11.578;2023-01-24T00:33:22;1.10;99.90
983;DHT22;480;48.124;11.578;2023-01-24T00:35:50;1.00;99.90
983;DHT22;480;48.124;11.578;2023-01-24T00:38:22;1.10;99.90
983;DHT22;480;48.124;11.578;2023-01-24T00:43:28;1.10;99.90
983;DHT22;480;48.124;11.578;2023-01-24T00:46:08;1.00;99.90
983;DHT22;480;48.124;11.578;2023-01-24T00:48:41;1.10;99.90
983;DHT22;480;48.124;11.578;2023-01-24T00:51:27;0.90;99.90
983;DHT22;480;48.124;11.578;2023-01-24T00:54:04;0.90;99.90
983;DHT22;480;48.124;11.578;2023-01-24T00:56:31;0.90;99.90
983;DHT22;480;48.124;11.578;2023-01-24T00:59:00;0.80;99.90
983;DHT22;480;48.124;11.578;2023-01-24T01:01:27;0.90;99.90
983;DHT22;480;48.124;11.578;2023-01-24T01:03:57;1.00;99.90
983;DHT22;480;48.124;11.578;2023-01-24T01:06:40;1.10;99.90
983;DHT22;480;48.124;11.578;2023-01-24T01:09:22;1.10;99.90
983;DHT22;480;48.124;11.578;2023-01-24T01:11:51;1.10;99.90
983;DHT22;480;48.124;11.578;2023-01-24T01:14:20;1.00;99.90
983;DHT22;480;48.124;11.578;2023-01-24T01:16:50;1.00;99.90
983;DHT22;480;48.124;11.578;2023-01-24T01:19:17;1.00;99.90
983;DHT22;480;48.124;11.578;2023-01-24T01:21:45;1.00;99.90
983;DHT22;480;48.124;11.578;2023-01-24T01:24:13;1.10;99.90
983;DHT22;480;48.124;11.578;2023-01-24T01:26:43;1.20;99.90
983;DHT22;480;48.124;11.578;2023-01-24T01:29:10;1.10;99.90
983;DHT22;480;48.124;11.578;2023-01-24T01:31:37;1.30;99.90
983;DHT22;480;48.124;11.578;2023-01-24T01:34:04;1.30;99.90
983;DHT22;480;48.124;11.578;2023-01-24T01:36:32;1.10;99.90
983;DHT22;480;48.124;11.578;2023-01-24T01:38:59;1.20;99.90
983;DHT22;480;48.124;11.578;2023-01-24T01:41:26;1.40;99.90
983;DHT22;480;48.124;11.578;2023-01-24T01:43:56;1.40;99.90
983;DHT22;480;48.124;11.578;2023-01-24T01:46:43;1.40;99.90
983;DHT22;480;48.124;11.578;2023-01-24T01:49:18;1.30;99.90
983;DHT22;480;48.124;11.578;2023-01-24T01:51:50;1.10;99.90
983;DHT22;480;48.124;11.578;2023-01-24T01:54:22;1.00;99.90
983;DHT22;480;48.124;11.578;2023-01-24T01:56:56;1.10;99.90
983;DHT22;480;48.124;11.578;2023-01-24T01:59:34;1.10;99.90
983;DHT22;480;48.124;11.578;2023-01-24T02:02:04;1.10;99.90
983;DHT22;480;48.124;11.578;2023-01-24T02:04:34;1.00;99.90
983;DHT22;480;48.124;11.578;2023-01-24T02:07:05;1.10;99.90
983;DHT22;480;48.124;11.578;2023-01-24T02:09:42;1.20;99.90
983;DHT22;480;48.124;11.578;2023-01-24T02:12:18;1.20;99.90
983;DHT22;480;48.124;11.578;2023-01-24T02:14:47;1.30;99.90
983;DHT22;480;48.124;11.578;2023-01-24T02:17:42;1.30;99.90
983;DHT22;480;48.124;11.578;2023-01-24T02:20:18;1.30;99.90
983;DHT22;480;48.124;11.578;2023-01-24T02:22:52;1.40;99.90
983;DHT22;480;48.124;11.578;2023-01-24T02:25:26;1.30;99.90
983;DHT22;480;48.124;11.578;2023-01-24T02:28:00;1.40;99.90
983;DHT22;480;48.124;11.578;2023-01-24T02:30:28;1.40;99.90
983;DHT22;480;48.124;11.578;2023-01-24T02:32:56;1.40;99.90
983;DHT22;480;48.124;11.578;2023-01-24T02:35:26;1.40;99.90
983;DHT22;480;48.124;11.578;2023-01-24T02:37:55;1.20;99.90
983;DHT22;480;48.124;11.578;2023-01-24T02:40:23;1.30;99.90
983;DHT22;480;48.124;11.578;2023-01-24T02:42:52;1.40;99.90
983;DHT22;480;48.124;11.578;2023-01-24T02:45:25;1.30;99.90
983;DHT22;480;48.124;11.578;2023-01-24T02:47:54;1.30;99.90
983;DHT22;480;48.124;11.578;2023-01-24T02:50:25;1.50;99.90
983;DHT22;480;48.124;11.578;2023-01-24T02:52:52;1.30;99.90
983;DHT22;480;48.124;11.578;2023-01-24T02:55:37;1.50;99.90
983;DHT22;480;48.124;11.578;2023-01-24T02:58:25;1.50;99.90
983;DHT22;480;48.124;11.578;2023-01-24T03:00:53;1.70;99.90
983;DHT22;480;48.124;11.578;2023-01-24T03:03:20;1.70;99.90
983;DHT22;480;48.124;11.578;2023-01-24T03:05:47;1.60;99.90
983;DHT22;480;48.124;11.578;2023-01-24T03:08:23;1.50;99.90
983;DHT22;480;48.124;11.578;2023-01-24T03:10:51;1.40;99.90
983;DHT22;480;48.124;11.578;2023-01-24T03:13:18;1.40;99.90
983;DHT22;480;48.124;11.578;2023-01-24T03:16:05;1.40;99.90
983;DHT22;480;48.124;11.578;2023-01-24T03:18:50;1.30;99.90
983;DHT22;480;48.124;11.578;2023-01-24T03:21:34;1.50;99.90
983;DHT22;480;48.124;11.578;2023-01-24T03:24:20;1.50;99.90
983;DHT22;480;48.124;11.578;2023-01-24T03:27:04;1.30;99.90
983;DHT22;480;48.124;11.578;2023-01-24T03:29:49;1.20;99.90
983;DHT22;480;48.124;11.578;2023-01-24T03:32:35;1.30;99.90
983;DHT22;480;48.124;11.578;2023-01-24T03:35:19;1.30;99.90
983;DHT22;480;48.124;11.578;2023-01-24T03:37:47;1.30;99.90
983;DHT22;480;48.124;11.578;2023-01-24T03:40:31;1.40;99.90
983;DHT22;480;48.124;11.578;2023-01-24T03:42:58;1.40;99.90
983;DHT22;480;48.124;11.578;2023-01-24T03:45:27;1.40;99.90
983;DHT22;480;48.124;11.578;2023-01-24T03:47:58;1.40;99.90
983;DHT22;480;48.124;11.578;2023-01-24T03:50:27;1.40;99.90
983;DHT22;480;48.124;11.578;2023-01-24T03:53:12;1.60;99.90
983;DHT22;480;48.124;11.578;2023-01-24T03:55:40;1.70;99.90
983;DHT22;480;48.124;11.578;2023-01-24T03:58:08;1.60;99.90
983;DHT22;480;48.124;11.578;2023-01-24T04:00:37;1.50;99.90
983;DHT22;480;48.124;11.578;2023-01-24T04:03:05;1.50;99.90
983;DHT22;480;48.124;11.578;2023-01-24T04:05:33;1.60;99.90
983;DHT22;480;48.124;11.578;2023-01-24T04:08:01;1.60;99.90
983;DHT22;480;48.124;11.578;2023-01-24T04:10:28;1.40;99.90
983;DHT22;480;48.124;11.578;2023-01-24T04:12:55;1.40;99.90
983;DHT22;480;48.124;11.578;2023-01-24T04:15:25;1.30;99.90
983;DHT22;480;48.124;11.578;2023-01-24T04:17:54;1.50;99.90
983;DHT22;480;48.124;11.578;2023-01-24T04:20:24;1.40;99.90
983;DHT22;480;48.124;11.578;2023-01-24T04:22:51;1.30;99.90
983;DHT22;480;48.124;11.578;2023-01-24T04:25:19;1.40;99.90
983;DHT22;480;48.124;11.578;2023-01-24T04:27:46;1.40;99.90
983;DHT22;480;48.124;11.578;2023-01-24T04:30:15;1.50;99.90
983;DHT22;480;48.124;11.578;2023-01-24T04:32:43;1.50;99.90
983;DHT22;480;48.124;11.578;2023-01-24T04:35:15;1.50;99.90
983;DHT22;480;48.124;11.578;2023-01-24T04:37:44;1.40;99.90
983;DHT22;480;48.124;11.578;2023-01-24T04:40:14;1.30;99.90
983;DHT22;480;48.124;11.578;2023-01-24T04:42:41;1.40;99.90
983;DHT22;480;48.124;11.578;2023-01-24T04:45:09;1.30;99.90
983;DHT22;480;48.124;11.578;2023-01-24T04:47:37;1.40;99.90
983;DHT22;480;48.124;11.578;2023-01-24T04:50:05;1.30;99.90
983;DHT22;480;48.124;11.578;2023-01-24T04:52:32;1.40;99.90
983;DHT22;480;48.124;11.578;2023-01-24T04:55:01;1.40;99.90
983;DHT22;480;48.124;11.578;2023-01-24T04:57:28;1.30;99.90
983;DHT22;480;48.124;11.578;2023-01-24T04:59:55;1.40;99.90
983;DHT22;480;48.124;11.578;2023-01-24T05:02:22;1.50;99.90
983;DHT22;480;48.124;11.578;2023-01-24T05:04:49;1.40;99.90
983;DHT22;480;48.124;11.578;2023-01-24T05:07:16;1.50;99.90
983;DHT22;480;48.124;11.578;2023-01-24T05:09:43;1.60;99.90
983;DHT22;480;48.124;11.578;2023-01-24T05:12:12;1.60;99.90
983;DHT22;480;48.124;11.578;2023-01-24T05:14:39;1.50;99.90
983;DHT22;480;48.124;11.578;2023-01-24T05:17:06;1.40;99.90
983;DHT22;480;48.124;11.578;2023-01-24T05:19:33;1.50;99.90
983;DHT22;480;48.124;11.578;2023-01-24T05:22:00;1.50;99.90
983;DHT22;480;48.124;11.578;2023-01-24T05:24:27;1.40;99.90
983;DHT22;480;48.124;11.578;2023-01-24T05:26:54;1.40;99.90
983;DHT22;480;48.124;11.578;2023-01-24T05:29:23;1.40;99.90
983;DHT22;480;48.124;11.578;2023-01-24T05:31:50;1.20;99.90
983;DHT22;480;48.124;11.578;2023-01-24T05:34:17;1.20;99.90
983;DHT22;480;48.124;11.578;2023-01-24T05:36:46;1.10;99.90
983;DHT22;480;48.124;11.578;2023-01-24T05:39:13;1.10;99.90
983;DHT22;480;48.124;11.578;2023-01-24T05:41:41;1.20;99.90
983;DHT22;480;48.124;11.578;2023-01-24T05:44:08;1.20;99.90
983;DHT22;480;48.124;11.578;2023-01-24T05:46:37;1.30;99.90
983;DHT22;480;48.124;11.578;2023-01-24T05:49:04;1.40;99.90
983;DHT22;480;48.124;11.578;2023-01-24T05:51:31;1.50;99.90
983;DHT22;480;48.124;11.578;2023-01-24T05:53:58;1.40;99.90
983;DHT22;480;48.124;11.578;2023-01-24T05:56:25;1.40;99.90
983;DHT22;480;48.124;11.578;2023-01-24T05:58:53;1.30;99.90
983;DHT22;480;48.124;11.578;2023-01-24T06:01:21;1.30;99.90
983;DHT22;480;48.124;11.578;2023-01-24T06:03:51;1.30;99.90
983;DHT22;480;48.124;11.578;2023-01-24T06:06:20;1.40;99.90
983;DHT22;480;48.124;11.578;2023-01-24T06:08:48;1.50;99.90
983;DHT22;480;48.124;11.578;2023-01-24T06:11:16;1.40;99.90
983;DHT22;480;48.124;11.578;2023-01-24T06:13:44;1.40;99.90
983;DHT22;480;48.124;11.578;2023-01-24T06:16:14;1.20;99.90
983;DHT22;480;48.124;11.578;2023-01-24T06:18:41;1.30;99.90
983;DHT22;480;48.124;11.578;2023-01-24T06:21:17;1.30;99.90
983;DHT22;480;48.124;11.578;2023-01-24T06:23:46;1.50;99.90
983;DHT22;480;48.124;11.578;2023-01-24T06:26:14;1.40;99.90
983;DHT22;480;48.124;11.578;2023-01-24T06:28:41;1.40;99.90
983;DHT22;480;48.124;11.578;2023-01-24T06:31:18;1.40;99.90
983;DHT22;480;48.124;11.578;2023-01-24T06:34:00;1.60;99.90
983;DHT22;480;48.124;11.578;2023-01-24T06:36:45;1.70;99.90
983;DHT22;480;48.124;11.578;2023-01-24T06:39:15;1.60;99.90
983;DHT22;480;48.124;11.578;2023-01-24T06:41:43;1.60;99.90
983;DHT22;480;48.124;11.578;2023-01-24T06:44:10;1.70;99.90
983;DHT22;480;48.124;11.578;2023-01-24T06:46:38;1.70;99.90
983;DHT22;480;48.124;11.578;2023-01-24T06:49:05;1.80;99.90
983;DHT22;480;48.124;11.578;2023-01-24T06:51:32;1.70;99.90
983;DHT22;480;48.124;11.578;2023-01-24T06:54:00;1.60;99.90
983;DHT22;480;48.124;11.578;2023-01-24T06:56:27;1.70;99.90
983;DHT22;480;48.124;11.578;2023-01-24T06:58:54;1.70;99.90
983;DHT22;480;48.124;11.578;2023-01-24T07:01:21;1.80;99.90
983;DHT22;480;48.124;11.578;2023-01-24T07:03:49;1.70;99.90
983;DHT22;480;48.124;11.578;2023-01-24T07:06:16;1.70;99.90
983;DHT22;480;48.124;11.578;2023-01-24T07:08:43;1.90;99.90
983;DHT22;480;48.124;11.578;2023-01-24T07:11:12;1.90;99.90
983;DHT22;480;48.124;11.578;2023-01-24T07:13:39;1.90;99.90
983;DHT22;480;48.124;11.578;2023-01-24T07:16:06;1.90;99.90
983;DHT22;480;48.124;11.578;2023-01-24T07:18:34;1.90;99.90
983;DHT22;480;48.124;11.578;2023-01-24T07:21:05;1.90;99.90
983;DHT22;480;48.124;11.578;2023-01-24T07:23:32;1.80;99.90
983;DHT22;480;48.124;11.578;2023-01-24T07:26:01;1.70;99.90
983;DHT22;480;48.124;11.578;2023-01-24T07:28:30;1.80;99.90
983;DHT22;480;48.124;11.578;2023-01-24T07:30:57;1.80;99.90
983;DHT22;480;48.124;11.578;2023-01-24T07:33:24;1.90;99.90
983;DHT22;480;48.124;11.578;2023-01-24T07:35:51;1.80;99.90
983;DHT22;480;48.124;11.578;2023-01-24T07:38:18;1.90;99.90
983;DHT22;480;48.124;11.578;2023-01-24T07:40:46;1.90;99.90
983;DHT22;480;48.124;11.578;2023-01-24T07:43:13;1.80;99.90
983;DHT22;480;48.124;11.578;2023-01-24T07:45:44;1.90;99.90
983;DHT22;480;48.124;11.578;2023-01-24T07:48:11;1.80;99.90
983;DHT22;480;48.124;11.578;2023-01-24T07:50:39;1.80;99.90
983;DHT22;480;48.124;11.578;2023-01-24T07:53:06;1.70;99.90
983;DHT22;480;48.124;11.578;2023-01-24T07:55:33;1.90;99.90
983;DHT22;480;48.124;11.578;2023-01-24T07:58:01;1.90;99.90
983;DHT22;480;48.124;11.578;2023-01-24T08:00:29;1.90;99.90
983;DHT22;480;48.124;11.578;2023-01-24T08:02:58;1.90;99.90
983;DHT22;480;48.124;11.578;2023-01-24T08:05:25;1.90;99.90
983;DHT22;480;48.124;11.578;2023-01-24T08:07:53;2.00;99.90
983;DHT22;480;48.124;11.578;2023-01-24T08:10:21;2.00;99.90
983;DHT22;480;48.124;11.578;2023-01-24T08:12:48;1.90;99.90
983;DHT22;480;48.124;11.578;2023-01-24T08:15:16;2.00;99.90
983;DHT22;480;48.124;11.578;2023-01-24T08:17:43;2.10;99.90
983;DHT22;480;48.124;11.578;2023-01-24T08:20:12;2.00;99.90
983;DHT22;480;48.124;11.578;2023-01-24T08:22:39;2.10;99.90
983;DHT22;480;48.124;11.578;2023-01-24T08:25:07;2.00;99.90
983;DHT22;480;48.124;11.578;2023-01-24T08:27:35;2.00;99.90
983;DHT22;480;48.124;11.578;2023-01-24T08:30:03;2.00;99.90
983;DHT22;480;48.124;11.578;2023-01-24T08:32:30;1.80;99.90
983;DHT22;480;48.124;11.578;2023-01-24T08:34:59;1.80;99.90
983;DHT22;480;48.124;11.578;2023-01-24T08:37:27;1.80;99.90
983;DHT22;480;48.124;11.578;2023-01-24T08:39:54;1.70;99.90
983;DHT22;480;48.124;11.578;2023-01-24T08:42:22;1.60;99.90
983;DHT22;480;48.124;11.578;2023-01-24T08:44:49;1.50;99.90
983;DHT22;480;48.124;11.578;2023-01-24T08:47:16;1.60;99.90
983;DHT22;480;48.124;11.578;2023-01-24T08:49:44;1.70;99.90
983;DHT22;480;48.124;11.578;2023-01-24T08:52:11;1.70;99.90
983;DHT22;480;48.124;11.578;2023-01-24T08:54:39;1.70;99.90
983;DHT22;480;48.124;11.578;2023-01-24T08:57:06;1.80;99.90
983;DHT22;480;48.124;11.578;2023-01-24T08:59:33;1.80;99.90
983;DHT22;480;48.124;11.578;2023-01-24T09:02:00;1.70;99.90
983;DHT22;480;48.124;11.578;2023-01-24T09:04:28;1.60;99.90
983;DHT22;480;48.124;11.578;2023-01-24T09:06:55;1.60;99.90
983;DHT22;480;48.124;11.578;2023-01-24T09:09:22;1.60;99.90
983;DHT22;480;48.124;11.578;2023-01-24T09:11:51;1.70;99.90
983;DHT22;480;48.124;11.578;2023-01-24T09:14:18;1.70;99.90
983;DHT22;480;48.124;11.578;2023-01-24T09:16:45;1.80;99.90
983;DHT22;480;48.124;11.578;2023-01-24T09:19:12;1.90;99.90
983;DHT22;480;48.124;11.578;2023-01-24T09:21:39;1.90;99.90
983;DHT22;480;48.124;11.578;2023-01-24T09:24:07;1.90;99.90
983;DHT22;480;48.124;11.578;2023-01-24T09:26:34;1.90;99.90
983;DHT22;480;48.124;11.578;2023-01-24T09:29:03;2.00;99.90
983;DHT22;480;48.124;11.578;2023-01-24T09:31:30;1.90;99.90
983;DHT22;480;48.124;11.578;2023-01-24T09:33:57;1.80;99.90
983;DHT22;480;48.124;11.578;2023-01-24T09:36:24;1.90;99.90
983;DHT22;480;48.124;11.578;2023-01-24T09:38:51;1.90;99.90
983;DHT22;480;48.124;11.578;2023-01-24T09:41:26;1.90;99.90
983;DHT22;480;48.124;11.578;2023-01-24T09:44:00;1.80;99.90
983;DHT22;480;48.124;11.578;2023-01-24T09:46:32;1.80;99.90
983;DHT22;480;48.124;11.578;2023-01-24T09:49:09;1.80;99.90
983;DHT22;480;48.124;11.578;2023-01-24T09:51:42;1.70;99.90
983;DHT22;480;48.124;11.578;2023-01-24T09:54:16;1.70;99.90
983;DHT22;480;48.124;11.578;2023-01-24T09:56:45;1.70;99.90
983;DHT22;480;48.124;11.578;2023-01-24T09:59:20;1.90;99.90
983;DHT22;480;48.124;11.578;2023-01-24T10:01:50;2.00;99.90
983;DHT22;480;48.124;11.578;2023-01-24T10:04:20;2.00;99.90
983;DHT22;480;48.124;11.578;2023-01-24T10:07:03;2.00;99.90
983;DHT22;480;48.124;11.578;2023-01-24T10:09:39;2.10;99.90
983;DHT22;480;48.124;11.578;2023-01-24T10:12:15;2.10;99.90
983;DHT22;480;48.124;11.578;2023-01-24T10:14:53;1.90;99.90
983;DHT22;480;48.124;11.578;2023-01-24T10:17:38;2.00;99.90
983;DHT22;480;48.124;11.578;2023-01-24T10:20:36;1.80;99.90
983;DHT22;480;48.124;11.578;2023-01-24T10:23:12;2.00;99.90
983;DHT22;480;48.124;11.578;2023-01-24T10:25:50;2.20;99.90
983;DHT22;480;48.124;11.578;2023-01-24T10:28:23;2.20;99.90
983;DHT22;480;48.124;11.578;2023-01-24T10:31:04;2.20;99.90
983;DHT22;480;48.124;11.578;2023-01-24T10:33:39;2.40;99.90
983;DHT22;480;48.124;11.578;2023-01-24T10:36:12;2.50;99.90
983;DHT22;480;48.124;11.578;2023-01-24T10:38:41;2.20;99.90
983;DHT22;480;48.124;11.578;2023-01-24T10:41:18;2.30;99.90
983;DHT22;480;48.124;11.578;2023-01-24T10:43:50;2.40;99.90
983;DHT22;480;48.124;11.578;2023-01-24T10:46:38;2.40;99.90
983;DHT22;480;48.124;11.578;2023-01-24T10:49:16;2.30;99.90
983;DHT22;480;48.124;11.578;2023-01-24T10:52:07;2.40;99.90
983;DHT22;480;48.124;11.578;2023-01-24T10:54:42;2.40;99.90
983;DHT22;480;48.124;11.578;2023-01-24T10:57:27;2.40;99.90
983;DHT22;480;48.124;11.578;2023-01-24T10:59:56;2.60;99.90
983;DHT22;480;48.124;11.578;2023-01-24T11:02:31;2.60;99.90
983;DHT22;480;48.124;11.578;2023-01-24T11:05:04;2.50;99.90
983;DHT22;480;48.124;11.578;2023-01-24T11:07:33;2.20;99.90
983;DHT22;480;48.124;11.578;2023-01-24T11:10:10;2.10;99.90
983;DHT22;480;48.124;11.578;2023-01-24T11:12:48;2.20;99.90
983;DHT22;480;48.124;11.578;2023-01-24T11:15:19;2.30;99.90
983;DHT22;480;48.124;11.578;2023-01-24T11:17:53;2.20;99.90
983;DHT22;480;48.124;11.578;2023-01-24T11:20:30;2.40;99.90
983;DHT22;480;48.124;11.578;2023-01-24T11:23:08;2.10;99.90
983;DHT22;480;48.124;11.578;2023-01-24T11:25:51;2.00;99.90
983;DHT22;480;48.124;11.578;2023-01-24T11:28:25;2.10;99.90
983;DHT22;480;48.124;11.578;2023-01-24T11:30:55;2.10;99.90
983;DHT22;480;48.124;11.578;2023-01-24T11:33:47;2.10;99.90
983;DHT22;480;48.124;11.578;2023-01-24T11:36:35;2.30;99.90
983;DHT22;480;48.124;11.578;2023-01-24T11:39:11;2.30;99.90
983;DHT22;480;48.124;11.578;2023-01-24T11:41:46;2.10;99.90
983;DHT22;480;48.124;11.578;2023-01-24T11:44:40;2.20;99.90
983;DHT22;480;48.124;11.578;2023-01-24T11:47:15;2.30;99.90
983;DHT22;480;48.124;11.578;2023-01-24T11:50:00;2.20;99.90
983;DHT22;480;48.124;11.578;2023-01-24T11:52:47;2.10;99.90
983;DHT22;480;48.124;11.578;2023-01-24T11:55:38;2.20;99.90
983;DHT22;480;48.124;11.578;2023-01-24T11:58:20;2.00;99.90
983;DHT22;480;48.124;11.578;2023-01-24T12:00:58;1.90;99.90
983;DHT22;480;48.124;11.578;2023-01-24T12:03:48;1.90;99.90
983;DHT22;480;48.124;11.578;2023-01-24T12:06:28;2.00;99.90
983;DHT22;480;48.124;11.578;2023-01-24T12:09:13;2.00;99.90
983;DHT22;480;48.124;11.578;2023-01-24T12:11:46;1.90;99.90
983;DHT22;480;48.124;11.578;2023-01-24T12:17:37;2.00;99.90
983;DHT22;480;48.124;11.578;2023-01-24T12:20:31;2.00;99.90
983;DHT22;480;48.124;11.578;2023-01-24T12:23:21;2.10;99.90
983;DHT22;480;48.124;11.578;2023-01-24T12:25:57;2.00;99.90
983;DHT22;480;48.124;11.578;2023-01-24T12:28:33;2.00;99.90
983;DHT22;480;48.124;11.578;2023-01-24T12:31:04;2.20;99.90
983;DHT22;480;48.124;11.578;2023-01-24T12:33:35;2.00;99.90
983;DHT22;480;48.124;11.578;2023-01-24T12:36:08;1.90;99.90
983;DHT22;480;48.124;11.578;2023-01-24T12:38:40;2.00;99.90
983;DHT22;480;48.124;11.578;2023-01-24T12:41:15;2.10;99.90
983;DHT22;480;48.124;11.578;2023-01-24T12:43:52;2.10;99.90
983;DHT22;480;48.124;11.578;2023-01-24T12:46:26;2.10;99.90
983;DHT22;480;48.124;11.578;2023-01-24T12:49:05;2.10;99.90
983;DHT22;480;48.124;11.578;2023-01-24T12:51:42;2.20;99.90
983;DHT22;480;48.124;11.578;2023-01-24T12:54:15;2.10;99.90
983;DHT22;480;48.124;11.578;2023-01-24T12:56:54;2.00;99.90
983;DHT22;480;48.124;11.578;2023-01-24T12:59:27;2.10;99.90
983;DHT22;480;48.124;11.578;2023-01-24T13:02:23;2.10;99.90
983;DHT22;480;48.124;11.578;2023-01-24T13:04:59;2.20;99.90
983;DHT22;480;48.124;11.578;2023-01-24T13:07:38;2.10;99.90
983;DHT22;480;48.124;11.578;2023-01-24T13:10:17;2.20;99.90
983;DHT22;480;48.124;11.578;2023-01-24T13:12:51;2.20;99.90
983;DHT22;480;48.124;11.578;2023-01-24T13:15:20;2.10;99.90
983;DHT22;480;48.124;11.578;2023-01-24T13:18:03;2.20;99.90
983;DHT22;480;48.124;11.578;2023-01-24T13:20:53;2.20;99.90
983;DHT22;480;48.124;11.578;2023-01-24T13:23:39;2.10;99.90
983;DHT22;480;48.124;11.578;2023-01-24T13:26:30;2.20;99.90
983;DHT22;480;48.124;11.578;2023-01-24T13:29:17;2.00;99.90
983;DHT22;480;48.124;11.578;2023-01-24T13:31:52;2.10;99.90
983;DHT22;480;48.124;11.578;2023-01-24T13:34:28;2.10;99.90
983;DHT22;480;48.124;11.578;2023-01-24T13:36:57;2.10;99.90
983;DHT22;480;48.124;11.578;2023-01-24T13:39:33;2.00;99.90
983;DHT22;480;48.124;11.578;2023-01-24T13:42:04;1.90;99.90
983;DHT22;480;48.124;11.578;2023-01-24T13:44:43;1.90;99.90
983;DHT22;480;48.124;11.578;2023-01-24T13:47:25;1.90;99.90
983;DHT22;480;48.124;11.578;2023-01-24T13:50:14;2.00;99.90
983;DHT22;480;48.124;11.578;2023-01-24T13:52:48;2.00;99.90
983;DHT22;480;48.124;11.578;2023-01-24T13:58:24;1.90;99.90
983;DHT22;480;48.124;11.578;2023-01-24T14:00:56;1.90;99.90
983;DHT22;480;48.124;11.578;2023-01-24T14:03:27;2.00;99.90
983;DHT22;480;48.124;11.578;2023-01-24T14:06:10;2.30;99.90
983;DHT22;480;48.124;11.578;2023-01-24T14:08:44;2.30;99.90
983;DHT22;480;48.124;11.578;2023-01-24T14:11:18;2.30;99.90
983;DHT22;480;48.124;11.578;2023-01-24T14:13:56;2.20;99.90
983;DHT22;480;48.124;11.578;2023-01-24T14:16:57;2.30;99.90
983;DHT22;480;48.124;11.578;2023-01-24T14:19:28;2.50;99.90
983;DHT22;480;48.124;11.578;2023-01-24T14:22:01;2.40;99.90
983;DHT22;480;48.124;11.578;2023-01-24T14:24:34;2.60;99.90
983;DHT22;480;48.124;11.578;2023-01-24T14:27:16;2.40;99.90
983;DHT22;480;48.124;11.578;2023-01-24T14:29:47;2.40;99.90
983;DHT22;480;48.124;11.578;2023-01-24T14:32:24;2.60;99.90
983;DHT22;480;48.124;11.578;2023-01-24T14:34:59;2.60;99.90
983;DHT22;480;48.124;11.578;2023-01-24T14:37:30;2.60;99.90
983;DHT22;480;48.124;11.578;2023-01-24T14:40:19;2.50;99.90
983;DHT22;480;48.124;11.578;2023-01-24T14:42:48;2.60;99.90
983;DHT22;480;48.124;11.578;2023-01-24T14:45:25;2.70;99.90
983;DHT22;480;48.124;11.578;2023-01-24T14:47:56;2.60;99.90
983;DHT22;480;48.124;11.578;2023-01-24T14:50:26;2.40;99.90
983;DHT22;480;48.124;11.578;2023-01-24T14:52:53;2.50;99.90
983;DHT22;480;48.124;11.578;2023-01-24T14:55:34;2.50;99.90
983;DHT22;480;48.124;11.578;2023-01-24T14:58:19;2.60;99.90
983;DHT22;480;48.124;11.578;2023-01-24T15:00:47;2.60;99.90
983;DHT22;480;48.124;11.578;2023-01-24T15:03:32;2.70;99.90
983;DHT22;480;48.124;11.578;2023-01-24T15:06:02;2.70;99.90
983;DHT22;480;48.124;11.578;2023-01-24T15:08:30;2.60;99.90
983;DHT22;480;48.124;11.578;2023-01-24T15:11:02;2.60;99.90
983;DHT22;480;48.124;11.578;2023-01-24T15:13:32;2.50;99.90
983;DHT22;480;48.124;11.578;2023-01-24T15:16:00;2.60;99.90
983;DHT22;480;48.124;11.578;2023-01-24T15:18:40;2.60;99.90
983;DHT22;480;48.124;11.578;2023-01-24T15:21:30;2.60;99.90
983;DHT22;480;48.124;11.578;2023-01-24T15:24:02;2.60;99.90
983;DHT22;480;48.124;11.578;2023-01-24T15:26:40;2.60;99.90
983;DHT22;480;48.124;11.578;2023-01-24T15:32:21;2.60;99.90
983;DHT22;480;48.124;11.578;2023-01-24T15:34:51;2.50;99.90
983;DHT22;480;48.124;11.578;2023-01-24T15:37:19;2.60;99.90
983;DHT22;480;48.124;11.578;2023-01-24T15:39:47;2.50;99.90
983;DHT22;480;48.124;11.578;2023-01-24T15:42:24;2.50;99.90
983;DHT22;480;48.124;11.578;2023-01-24T15:45:16;2.60;99.90
983;DHT22;480;48.124;11.578;2023-01-24T15:47:43;2.70;99.90
983;DHT22;480;48.124;11.578;2023-01-24T15:50:19;2.60;99.90
983;DHT22;480;48.124;11.578;2023-01-24T15:53:11;2.60;99.90
983;DHT22;480;48.124;11.578;2023-01-24T15:55:39;2.60;99.90
983;DHT22;480;48.124;11.578;2023-01-24T15:58:08;2.70;99.90
983;DHT22;480;48.124;11.578;2023-01-24T16:00:38;2.40;99.90
983;DHT22;480;48.124;11.578;2023-01-24T16:05:39;2.10;99.90
983;DHT22;480;48.124;11.578;2023-01-24T16:08:07;2.20;99.90
983;DHT22;480;48.124;11.578;2023-01-24T16:10:36;2.10;99.90
983;DHT22;480;48.124;11.578;2023-01-24T16:13:05;2.20;99.90
983;DHT22;480;48.124;11.578;2023-01-24T16:15:32;2.10;99.90
983;DHT22;480;48.124;11.578;2023-01-24T16:18:06;2.20;99.90
983;DHT22;480;48.124;11.578;2023-01-24T16:20:35;2.00;99.90
983;DHT22;480;48.124;11.578;2023-01-24T16:23:05;1.90;99.90
983;DHT22;480;48.124;11.578;2023-01-24T16:25:33;2.00;99.90
983;DHT22;480;48.124;11.578;2023-01-24T16:28:08;2.10;99.90
983;DHT22;480;48.124;11.578;2023-01-24T16:30:54;2.00;99.90
983;DHT22;480;48.124;11.578;2023-01-24T16:33:25;2.00;99.90
983;DHT22;480;48.124;11.578;2023-01-24T16:35:53;2.10;99.90
983;DHT22;480;48.124;11.578;2023-01-24T16:38:22;2.00;99.90
983;DHT22;480;48.124;11.578;2023-01-24T16:40:50;2.00;99.90
983;DHT22;480;48.124;11.578;2023-01-24T16:43:19;2.00;99.90
983;DHT22;480;48.124;11.578;2023-01-24T16:45:49;2.00;99.90
983;DHT22;480;48.124;11.578;2023-01-24T16:48:18;2.10;99.90
983;DHT22;480;48.124;11.578;2023-01-24T16:50:49;2.20;99.90
983;DHT22;480;48.124;11.578;2023-01-24T16:53:20;2.00;99.90
983;DHT22;480;48.124;11.578;2023-01-24T16:55:57;2.00;99.90
983;DHT22;480;48.124;11.578;2023-01-24T16:58:26;2.00;99.90
983;DHT22;480;48.124;11.578;2023-01-24T17:00:54;1.90;99.90
983;DHT22;480;48.124;11.578;2023-01-24T17:03:21;2.00;99.90
983;DHT22;480;48.124;11.578;2023-01-24T17:05:49;1.90;99.90
983;DHT22;480;48.124;11.578;2023-01-24T17:08:16;2.00;99.90
983;DHT22;480;48.124;11.578;2023-01-24T17:10:43;2.00;99.90
983;DHT22;480;48.124;11.578;2023-01-24T17:13:13;2.00;99.90
983;DHT22;480;48.124;11.578;2023-01-24T17:15:41;2.10;99.90
983;DHT22;480;48.124;11.578;2023-01-24T17:18:08;2.00;99.90
983;DHT22;480;48.124;11.578;2023-01-24T17:20:49;2.00;99.90
983;DHT22;480;48.124;11.578;2023-01-24T17:23:17;2.10;99.90
983;DHT22;480;48.124;11.578;2023-01-24T17:25:45;2.10;99.90
983;DHT22;480;48.124;11.578;2023-01-24T17:28:16;2.00;99.90
983;DHT22;480;48.124;11.578;2023-01-24T17:30:45;2.10;99.90
983;DHT22;480;48.124;11.578;2023-01-24T17:33:12;2.20;99.90
983;DHT22;480;48.124;11.578;2023-01-24T17:35:39;2.10;99.90
983;DHT22;480;48.124;11.578;2023-01-24T17:38:07;2.00;99.90
983;DHT22;480;48.124;11.578;2023-01-24T17:40:35;2.00;99.90
983;DHT22;480;48.124;11.578;2023-01-24T17:43:02;2.10;99.90
983;DHT22;480;48.124;11.578;2023-01-24T17:45:31;2.00;99.90
983;DHT22;480;48.124;11.578;2023-01-24T17:47:59;2.00;99.90
983;DHT22;480;48.124;11.578;2023-01-24T17:50:32;1.90;99.90